sensor_id;sensor_type;location;lat;lon;timestamp;P1;durP1;ratioP1;P2;durP2;ratioP2
52208;SDS011;38507;53.132;6.394;2023-08-30T00:00:05;15.07;;;13.45;;
52208;SDS011;38507;53.132;6.394;2023-08-30T00:02:31;15.70;;;12.57;;
52208;SDS011;38507;53.132;6.394;2023-08-30T00:04:59;15.77;;;13.80;;
52208;SDS011;38507;53.132;6.394;2023-08-30T00:07:26;14.00;;;12.52;;
52208;SDS011;38507;53.132;6.394;2023-08-30T00:09:51;13.85;;;12.32;;
52208;SDS011;38507;53.132;6.394;2023-08-30T00:12:17;14.85;;;13.10;;
52208;SDS011;38507;53.132;6.394;2023-08-30T00:14:43;14.70;;;13.18;;
52208;SDS011;38507;53.132;6.394;2023-08-30T00:17:08;16.70;;;13.75;;
52208;SDS011;38507;53.132;6.394;2023-08-30T00:19:34;19.08;;;14.52;;
52208;SDS011;38507;53.132;6.394;2023-08-30T00:22:00;17.20;;;14.63;;
52208;SDS011;38507;53.132;6.394;2023-08-30T00:24:25;18.00;;;13.95;;
52208;SDS011;38507;53.132;6.394;2023-08-30T00:26:51;14.27;;;12.70;;
52208;SDS011;38507;53.132;6.394;2023-08-30T00:29:17;14.40;;;12.90;;
52208;SDS011;38507;53.132;6.394;2023-08-30T00:31:42;14.60;;;13.05;;
52208;SDS011;38507;53.132;6.394;2023-08-30T00:34:08;13.82;;;12.32;;
52208;SDS011;38507;53.132;6.394;2023-08-30T00:36:33;13.35;;;11.95;;
52208;SDS011;38507;53.132;6.394;2023-08-30T00:38:59;14.45;;;12.82;;
52208;SDS011;38507;53.132;6.394;2023-08-30T00:41:25;15.88;;;12.63;;
52208;SDS011;38507;53.132;6.394;2023-08-30T00:43:50;17.60;;;12.85;;
52208;SDS011;38507;53.132;6.394;2023-08-30T00:46:16;15.75;;;12.73;;
52208;SDS011;38507;53.132;6.394;2023-08-30T00:48:43;15.95;;;12.55;;
52208;SDS011;38507;53.132;6.394;2023-08-30T00:51:09;14.90;;;13.10;;
52208;SDS011;38507;53.132;6.394;2023-08-30T00:53:35;15.52;;;12.75;;
52208;SDS011;38507;53.132;6.394;2023-08-30T00:56:01;14.13;;;12.07;;
52208;SDS011;38507;53.132;6.394;2023-08-30T00:58:27;13.85;;;11.80;;
52208;SDS011;38507;53.132;6.394;2023-08-30T01:00:53;14.10;;;12.45;;
52208;SDS011;38507;53.132;6.394;2023-08-30T01:03:20;15.93;;;12.35;;
52208;SDS011;38507;53.132;6.394;2023-08-30T01:05:47;16.77;;;13.40;;
52208;SDS011;38507;53.132;6.394;2023-08-30T01:08:13;17.67;;;12.50;;
52208;SDS011;38507;53.132;6.394;2023-08-30T01:13:38;14.20;;;11.77;;
52208;SDS011;38507;53.132;6.394;2023-08-30T01:16:09;17.47;;;11.60;;
52208;SDS011;38507;53.132;6.394;2023-08-30T01:18:36;14.20;;;11.57;;
52208;SDS011;38507;53.132;6.394;2023-08-30T01:21:04;15.95;;;11.68;;
52208;SDS011;38507;53.132;6.394;2023-08-30T01:26:24;17.50;;;12.35;;
52208;SDS011;38507;53.132;6.394;2023-08-30T01:29:01;15.20;;;11.98;;
52208;SDS011;38507;53.132;6.394;2023-08-30T01:31:30;15.93;;;12.45;;
52208;SDS011;38507;53.132;6.394;2023-08-30T01:33:58;13.25;;;11.70;;
52208;SDS011;38507;53.132;6.394;2023-08-30T01:36:27;13.65;;;11.93;;
52208;SDS011;38507;53.132;6.394;2023-08-30T01:38:53;13.10;;;11.65;;
52208;SDS011;38507;53.132;6.394;2023-08-30T01:41:19;15.35;;;12.55;;
52208;SDS011;38507;53.132;6.394;2023-08-30T01:43:48;15.55;;;11.40;;
52208;SDS011;38507;53.132;6.394;2023-08-30T01:46:15;15.52;;;12.07;;
52208;SDS011;38507;53.132;6.394;2023-08-30T01:48:44;17.15;;;12.80;;
52208;SDS011;38507;53.132;6.394;2023-08-30T01:51:11;15.07;;;12.63;;
52208;SDS011;38507;53.132;6.394;2023-08-30T01:53:38;15.15;;;13.10;;
52208;SDS011;38507;53.132;6.394;2023-08-30T01:56:04;13.57;;;11.70;;
52208;SDS011;38507;53.132;6.394;2023-08-30T01:58:30;17.33;;;12.85;;
52208;SDS011;38507;53.132;6.394;2023-08-30T02:00:55;16.52;;;12.60;;
52208;SDS011;38507;53.132;6.394;2023-08-30T02:03:22;19.73;;;12.77;;
52208;SDS011;38507;53.132;6.394;2023-08-30T02:05:49;15.88;;;12.57;;
52208;SDS011;38507;53.132;6.394;2023-08-30T02:08:16;15.98;;;13.13;;
52208;SDS011;38507;53.132;6.394;2023-08-30T02:10:45;15.27;;;12.65;;
52208;SDS011;38507;53.132;6.394;2023-08-30T02:13:18;15.68;;;12.32;;
52208;SDS011;38507;53.132;6.394;2023-08-30T02:15:50;15.18;;;12.00;;
52208;SDS011;38507;53.132;6.394;2023-08-30T02:18:16;15.85;;;12.43;;
52208;SDS011;38507;53.132;6.394;2023-08-30T02:20:41;15.73;;;13.10;;
52208;SDS011;38507;53.132;6.394;2023-08-30T02:23:09;18.83;;;11.43;;
52208;SDS011;38507;53.132;6.394;2023-08-30T02:25:35;15.27;;;12.02;;
52208;SDS011;38507;53.132;6.394;2023-08-30T02:28:00;16.08;;;12.10;;
52208;SDS011;38507;53.132;6.394;2023-08-30T02:30:26;16.05;;;12.13;;
52208;SDS011;38507;53.132;6.394;2023-08-30T02:32:52;16.42;;;13.13;;
52208;SDS011;38507;53.132;6.394;2023-08-30T02:35:17;16.38;;;11.50;;
52208;SDS011;38507;53.132;6.394;2023-08-30T02:37:43;16.60;;;11.85;;
52208;SDS011;38507;53.132;6.394;2023-08-30T02:40:09;16.20;;;11.30;;
52208;SDS011;38507;53.132;6.394;2023-08-30T02:42:35;13.85;;;11.60;;
52208;SDS011;38507;53.132;6.394;2023-08-30T02:45:00;14.98;;;11.60;;
52208;SDS011;38507;53.132;6.394;2023-08-30T02:47:26;15.93;;;11.18;;
52208;SDS011;38507;53.132;6.394;2023-08-30T02:49:52;15.75;;;11.25;;
52208;SDS011;38507;53.132;6.394;2023-08-30T02:52:17;15.65;;;11.40;;
52208;SDS011;38507;53.132;6.394;2023-08-30T02:54:43;15.07;;;11.52;;
52208;SDS011;38507;53.132;6.394;2023-08-30T02:57:09;16.85;;;11.55;;
52208;SDS011;38507;53.132;6.394;2023-08-30T02:59:34;13.63;;;11.10;;
52208;SDS011;38507;53.132;6.394;2023-08-30T03:02:00;14.18;;;11.15;;
52208;SDS011;38507;53.132;6.394;2023-08-30T03:04:26;12.18;;;10.23;;
52208;SDS011;38507;53.132;6.394;2023-08-30T03:06:52;15.32;;;10.70;;
52208;SDS011;38507;53.132;6.394;2023-08-30T03:09:18;12.98;;;10.43;;
52208;SDS011;38507;53.132;6.394;2023-08-30T03:11:43;12.07;;;10.23;;
52208;SDS011;38507;53.132;6.394;2023-08-30T03:14:09;13.95;;;10.00;;
52208;SDS011;38507;53.132;6.394;2023-08-30T03:16:35;15.20;;;10.25;;
52208;SDS011;38507;53.132;6.394;2023-08-30T03:19:01;12.63;;;9.93;;
52208;SDS011;38507;53.132;6.394;2023-08-30T03:21:27;15.82;;;10.20;;
52208;SDS011;38507;53.132;6.394;2023-08-30T03:23:53;12.90;;;10.13;;
52208;SDS011;38507;53.132;6.394;2023-08-30T03:26:18;13.18;;;9.52;;
52208;SDS011;38507;53.132;6.394;2023-08-30T03:28:44;14.80;;;10.05;;
52208;SDS011;38507;53.132;6.394;2023-08-30T03:31:13;13.70;;;9.75;;
52208;SDS011;38507;53.132;6.394;2023-08-30T03:33:43;13.80;;;10.23;;
52208;SDS011;38507;53.132;6.394;2023-08-30T03:36:10;14.55;;;9.63;;
52208;SDS011;38507;53.132;6.394;2023-08-30T03:38:37;13.68;;;10.18;;
52208;SDS011;38507;53.132;6.394;2023-08-30T03:41:03;14.02;;;10.40;;
52208;SDS011;38507;53.132;6.394;2023-08-30T03:43:30;13.00;;;9.93;;
52208;SDS011;38507;53.132;6.394;2023-08-30T03:45:56;17.15;;;10.27;;
52208;SDS011;38507;53.132;6.394;2023-08-30T03:48:22;13.60;;;10.13;;
52208;SDS011;38507;53.132;6.394;2023-08-30T03:50:48;13.90;;;10.32;;
52208;SDS011;38507;53.132;6.394;2023-08-30T03:53:14;14.45;;;10.32;;
52208;SDS011;38507;53.132;6.394;2023-08-30T03:55:40;14.48;;;9.85;;
52208;SDS011;38507;53.132;6.394;2023-08-30T03:58:06;14.70;;;10.82;;
52208;SDS011;38507;53.132;6.394;2023-08-30T04:00:32;14.77;;;10.35;;
52208;SDS011;38507;53.132;6.394;2023-08-30T04:03:00;15.35;;;11.65;;
52208;SDS011;38507;53.132;6.394;2023-08-30T04:05:26;13.90;;;10.48;;
52208;SDS011;38507;53.132;6.394;2023-08-30T04:07:52;15.07;;;11.50;;
52208;SDS011;38507;53.132;6.394;2023-08-30T04:10:17;14.80;;;10.82;;
52208;SDS011;38507;53.132;6.394;2023-08-30T04:12:43;15.13;;;11.15;;
52208;SDS011;38507;53.132;6.394;2023-08-30T04:15:09;19.15;;;11.20;;
52208;SDS011;38507;53.132;6.394;2023-08-30T04:17:37;15.00;;;10.85;;
52208;SDS011;38507;53.132;6.394;2023-08-30T04:20:03;14.85;;;11.32;;
52208;SDS011;38507;53.132;6.394;2023-08-30T04:22:29;14.60;;;11.45;;
52208;SDS011;38507;53.132;6.394;2023-08-30T04:24:54;16.40;;;11.85;;
52208;SDS011;38507;53.132;6.394;2023-08-30T04:27:20;16.92;;;11.27;;
52208;SDS011;38507;53.132;6.394;2023-08-30T04:29:45;13.55;;;11.48;;
52208;SDS011;38507;53.132;6.394;2023-08-30T04:32:12;14.13;;;11.25;;
52208;SDS011;38507;53.132;6.394;2023-08-30T04:34:38;15.38;;;11.77;;
52208;SDS011;38507;53.132;6.394;2023-08-30T04:37:03;16.20;;;11.77;;
52208;SDS011;38507;53.132;6.394;2023-08-30T04:39:29;15.27;;;11.55;;
52208;SDS011;38507;53.132;6.394;2023-08-30T04:41:55;14.70;;;11.85;;
52208;SDS011;38507;53.132;6.394;2023-08-30T04:44:21;17.50;;;12.73;;
52208;SDS011;38507;53.132;6.394;2023-08-30T04:46:49;14.57;;;11.85;;
52208;SDS011;38507;53.132;6.394;2023-08-30T04:49:17;17.15;;;11.90;;
52208;SDS011;38507;53.132;6.394;2023-08-30T04:51:42;16.58;;;12.65;;
52208;SDS011;38507;53.132;6.394;2023-08-30T04:54:08;15.70;;;11.23;;
52208;SDS011;38507;53.132;6.394;2023-08-30T04:56:34;13.48;;;11.18;;
52208;SDS011;38507;53.132;6.394;2023-08-30T04:59:00;15.10;;;11.93;;
52208;SDS011;38507;53.132;6.394;2023-08-30T05:01:28;14.30;;;10.52;;
52208;SDS011;38507;53.132;6.394;2023-08-30T05:03:55;15.75;;;11.10;;
52208;SDS011;38507;53.132;6.394;2023-08-30T05:06:20;15.70;;;11.07;;
52208;SDS011;38507;53.132;6.394;2023-08-30T05:08:46;16.13;;;11.38;;
52208;SDS011;38507;53.132;6.394;2023-08-30T05:11:11;11.98;;;10.23;;
52208;SDS011;38507;53.132;6.394;2023-08-30T05:13:37;14.95;;;11.23;;
52208;SDS011;38507;53.132;6.394;2023-08-30T05:16:04;13.27;;;10.55;;
52208;SDS011;38507;53.132;6.394;2023-08-30T05:18:30;13.80;;;10.90;;
52208;SDS011;38507;53.132;6.394;2023-08-30T05:20:55;15.68;;;11.40;;
52208;SDS011;38507;53.132;6.394;2023-08-30T05:23:21;13.38;;;10.90;;
52208;SDS011;38507;53.132;6.394;2023-08-30T05:25:47;14.15;;;10.70;;
52208;SDS011;38507;53.132;6.394;2023-08-30T05:28:12;13.25;;;10.60;;
52208;SDS011;38507;53.132;6.394;2023-08-30T05:30:42;14.38;;;9.93;;
52208;SDS011;38507;53.132;6.394;2023-08-30T05:33:09;14.90;;;11.10;;
52208;SDS011;38507;53.132;6.394;2023-08-30T05:35:35;14.35;;;10.20;;
52208;SDS011;38507;53.132;6.394;2023-08-30T05:38:00;14.95;;;11.52;;
52208;SDS011;38507;53.132;6.394;2023-08-30T05:40:26;14.75;;;10.10;;
52208;SDS011;38507;53.132;6.394;2023-08-30T05:42:51;14.32;;;10.65;;
52208;SDS011;38507;53.132;6.394;2023-08-30T05:45:17;14.00;;;10.35;;
52208;SDS011;38507;53.132;6.394;2023-08-30T05:47:43;13.55;;;10.10;;
52208;SDS011;38507;53.132;6.394;2023-08-30T05:50:08;14.75;;;10.70;;
52208;SDS011;38507;53.132;6.394;2023-08-30T05:52:34;13.05;;;9.88;;
52208;SDS011;38507;53.132;6.394;2023-08-30T05:55:00;13.15;;;9.57;;
52208;SDS011;38507;53.132;6.394;2023-08-30T05:57:26;14.95;;;9.90;;
52208;SDS011;38507;53.132;6.394;2023-08-30T05:59:54;13.90;;;9.93;;
52208;SDS011;38507;53.132;6.394;2023-08-30T06:02:19;13.18;;;9.73;;
52208;SDS011;38507;53.132;6.394;2023-08-30T06:04:45;15.77;;;9.82;;
52208;SDS011;38507;53.132;6.394;2023-08-30T06:07:10;13.95;;;9.70;;
52208;SDS011;38507;53.132;6.394;2023-08-30T06:09:36;15.07;;;10.77;;
52208;SDS011;38507;53.132;6.394;2023-08-30T06:12:02;14.77;;;10.60;;
52208;SDS011;38507;53.132;6.394;2023-08-30T06:14:28;14.85;;;10.07;;
52208;SDS011;38507;53.132;6.394;2023-08-30T06:16:54;13.90;;;9.88;;
52208;SDS011;38507;53.132;6.394;2023-08-30T06:19:20;14.63;;;10.38;;
52208;SDS011;38507;53.132;6.394;2023-08-30T06:21:45;16.50;;;9.85;;
52208;SDS011;38507;53.132;6.394;2023-08-30T06:24:11;17.08;;;10.95;;
52208;SDS011;38507;53.132;6.394;2023-08-30T06:26:36;13.73;;;10.05;;
52208;SDS011;38507;53.132;6.394;2023-08-30T06:29:02;15.93;;;10.43;;
52208;SDS011;38507;53.132;6.394;2023-08-30T06:31:28;13.88;;;10.13;;
52208;SDS011;38507;53.132;6.394;2023-08-30T06:33:54;15.20;;;10.38;;
52208;SDS011;38507;53.132;6.394;2023-08-30T06:36:19;14.15;;;9.90;;
52208;SDS011;38507;53.132;6.394;2023-08-30T06:38:47;16.35;;;10.75;;
52208;SDS011;38507;53.132;6.394;2023-08-30T06:41:13;13.05;;;9.95;;
52208;SDS011;38507;53.132;6.394;2023-08-30T06:43:39;14.27;;;10.60;;
52208;SDS011;38507;53.132;6.394;2023-08-30T06:46:04;13.77;;;10.05;;
52208;SDS011;38507;53.132;6.394;2023-08-30T06:48:30;15.57;;;9.75;;
52208;SDS011;38507;53.132;6.394;2023-08-30T06:50:58;16.30;;;9.77;;
52208;SDS011;38507;53.132;6.394;2023-08-30T06:53:27;13.30;;;9.98;;
52208;SDS011;38507;53.132;6.394;2023-08-30T06:55:59;13.90;;;9.73;;
52208;SDS011;38507;53.132;6.394;2023-08-30T06:58:26;18.17;;;10.70;;
52208;SDS011;38507;53.132;6.394;2023-08-30T07:00:52;15.55;;;10.05;;
52208;SDS011;38507;53.132;6.394;2023-08-30T07:03:18;14.02;;;10.07;;
52208;SDS011;38507;53.132;6.394;2023-08-30T07:05:44;12.20;;;9.65;;
52208;SDS011;38507;53.132;6.394;2023-08-30T07:08:09;13.48;;;10.10;;
52208;SDS011;38507;53.132;6.394;2023-08-30T07:10:35;15.75;;;9.82;;
52208;SDS011;38507;53.132;6.394;2023-08-30T07:13:01;14.68;;;9.93;;
52208;SDS011;38507;53.132;6.394;2023-08-30T07:15:26;13.85;;;10.30;;
52208;SDS011;38507;53.132;6.394;2023-08-30T07:17:52;15.98;;;9.80;;
52208;SDS011;38507;53.132;6.394;2023-08-30T07:20:18;14.40;;;9.55;;
52208;SDS011;38507;53.132;6.394;2023-08-30T07:22:43;13.30;;;9.57;;
52208;SDS011;38507;53.132;6.394;2023-08-30T07:25:09;22.90;;;10.60;;
52208;SDS011;38507;53.132;6.394;2023-08-30T07:27:35;14.95;;;9.85;;
52208;SDS011;38507;53.132;6.394;2023-08-30T07:30:02;12.70;;;9.10;;
52208;SDS011;38507;53.132;6.394;2023-08-30T07:32:29;13.57;;;9.65;;
52208;SDS011;38507;53.132;6.394;2023-08-30T07:34:55;14.05;;;9.07;;
52208;SDS011;38507;53.132;6.394;2023-08-30T07:37:20;13.55;;;8.93;;
52208;SDS011;38507;53.132;6.394;2023-08-30T07:39:46;16.75;;;9.63;;
52208;SDS011;38507;53.132;6.394;2023-08-30T07:42:13;15.75;;;8.25;;
52208;SDS011;38507;53.132;6.394;2023-08-30T07:44:39;16.17;;;8.65;;
52208;SDS011;38507;53.132;6.394;2023-08-30T07:47:05;14.85;;;8.52;;
52208;SDS011;38507;53.132;6.394;2023-08-30T07:49:31;13.73;;;8.82;;
52208;SDS011;38507;53.132;6.394;2023-08-30T07:51:56;12.65;;;8.32;;
52208;SDS011;38507;53.132;6.394;2023-08-30T07:54:22;12.90;;;8.93;;
52208;SDS011;38507;53.132;6.394;2023-08-30T07:56:48;13.73;;;8.48;;
52208;SDS011;38507;53.132;6.394;2023-08-30T07:59:13;13.15;;;8.75;;
52208;SDS011;38507;53.132;6.394;2023-08-30T08:01:39;14.13;;;8.60;;
52208;SDS011;38507;53.132;6.394;2023-08-30T08:04:05;13.65;;;8.90;;
52208;SDS011;38507;53.132;6.394;2023-08-30T08:06:30;16.08;;;8.60;;
52208;SDS011;38507;53.132;6.394;2023-08-30T08:08:56;14.57;;;9.50;;
52208;SDS011;38507;53.132;6.394;2023-08-30T08:11:22;13.00;;;9.05;;
52208;SDS011;38507;53.132;6.394;2023-08-30T08:13:47;14.35;;;9.05;;
52208;SDS011;38507;53.132;6.394;2023-08-30T08:16:13;13.65;;;8.90;;
52208;SDS011;38507;53.132;6.394;2023-08-30T08:18:38;13.77;;;8.90;;
52208;SDS011;38507;53.132;6.394;2023-08-30T08:21:04;12.13;;;8.38;;
52208;SDS011;38507;53.132;6.394;2023-08-30T08:23:30;13.02;;;8.60;;
52208;SDS011;38507;53.132;6.394;2023-08-30T08:25:59;13.15;;;8.88;;
52208;SDS011;38507;53.132;6.394;2023-08-30T08:28:25;13.68;;;8.27;;
52208;SDS011;38507;53.132;6.394;2023-08-30T08:30:51;14.38;;;8.80;;
52208;SDS011;38507;53.132;6.394;2023-08-30T08:33:17;16.92;;;9.20;;
52208;SDS011;38507;53.132;6.394;2023-08-30T08:35:43;15.20;;;9.13;;
52208;SDS011;38507;53.132;6.394;2023-08-30T08:38:09;11.43;;;7.85;;
52208;SDS011;38507;53.132;6.394;2023-08-30T08:40:36;13.55;;;8.43;;
52208;SDS011;38507;53.132;6.394;2023-08-30T08:43:04;11.32;;;7.60;;
52208;SDS011;38507;53.132;6.394;2023-08-30T08:45:39;11.95;;;8.60;;
52208;SDS011;38507;53.132;6.394;2023-08-30T08:50:34;12.82;;;8.45;;
52208;SDS011;38507;53.132;6.394;2023-08-30T08:53:01;11.00;;;7.78;;
52208;SDS011;38507;53.132;6.394;2023-08-30T08:55:27;11.40;;;7.60;;
52208;SDS011;38507;53.132;6.394;2023-08-30T08:57:55;10.95;;;8.40;;
52208;SDS011;38507;53.132;6.394;2023-08-30T09:00:23;15.20;;;8.23;;
52208;SDS011;38507;53.132;6.394;2023-08-30T09:02:49;13.77;;;8.18;;
52208;SDS011;38507;53.132;6.394;2023-08-30T09:05:17;12.57;;;7.88;;
52208;SDS011;38507;53.132;6.394;2023-08-30T09:07:44;13.25;;;8.00;;
52208;SDS011;38507;53.132;6.394;2023-08-30T09:10:10;15.00;;;8.00;;
52208;SDS011;38507;53.132;6.394;2023-08-30T09:12:36;11.05;;;7.43;;
52208;SDS011;38507;53.132;6.394;2023-08-30T09:15:02;11.05;;;8.07;;
52208;SDS011;38507;53.132;6.394;2023-08-30T09:17:35;11.10;;;7.50;;
52208;SDS011;38507;53.132;6.394;2023-08-30T09:22:38;11.70;;;7.68;;
52208;SDS011;38507;53.132;6.394;2023-08-30T09:25:05;11.43;;;7.80;;
52208;SDS011;38507;53.132;6.394;2023-08-30T09:27:34;11.00;;;8.18;;
52208;SDS011;38507;53.132;6.394;2023-08-30T09:30:00;11.52;;;8.25;;
52208;SDS011;38507;53.132;6.394;2023-08-30T09:32:28;11.48;;;7.50;;
52208;SDS011;38507;53.132;6.394;2023-08-30T09:34:53;10.77;;;8.02;;
52208;SDS011;38507;53.132;6.394;2023-08-30T09:37:22;11.82;;;8.95;;
52208;SDS011;38507;53.132;6.394;2023-08-30T09:39:51;14.77;;;8.80;;
52208;SDS011;38507;53.132;6.394;2023-08-30T09:42:17;11.75;;;8.60;;
52208;SDS011;38507;53.132;6.394;2023-08-30T09:44:43;13.00;;;8.43;;
52208;SDS011;38507;53.132;6.394;2023-08-30T09:47:08;11.85;;;7.45;;
52208;SDS011;38507;53.132;6.394;2023-08-30T09:49:39;11.85;;;7.55;;
52208;SDS011;38507;53.132;6.394;2023-08-30T09:52:08;11.50;;;8.48;;
52208;SDS011;38507;53.132;6.394;2023-08-30T09:54:35;13.23;;;7.55;;
52208;SDS011;38507;53.132;6.394;2023-08-30T09:57:06;10.95;;;7.20;;
52208;SDS011;38507;53.132;6.394;2023-08-30T09:59:32;12.63;;;7.80;;
52208;SDS011;38507;53.132;6.394;2023-08-30T10:01:58;9.80;;;6.90;;
52208;SDS011;38507;53.132;6.394;2023-08-30T10:04:25;12.02;;;7.00;;
52208;SDS011;38507;53.132;6.394;2023-08-30T10:06:52;10.07;;;6.25;;
52208;SDS011;38507;53.132;6.394;2023-08-30T10:09:20;9.60;;;6.95;;
52208;SDS011;38507;53.132;6.394;2023-08-30T10:11:47;11.05;;;6.05;;
52208;SDS011;38507;53.132;6.394;2023-08-30T10:14:14;8.90;;;5.57;;
52208;SDS011;38507;53.132;6.394;2023-08-30T10:16:43;7.55;;;5.63;;
52208;SDS011;38507;53.132;6.394;2023-08-30T10:19:11;8.98;;;5.43;;
52208;SDS011;38507;53.132;6.394;2023-08-30T10:21:47;10.05;;;5.95;;
52208;SDS011;38507;53.132;6.394;2023-08-30T10:24:16;9.48;;;5.80;;
52208;SDS011;38507;53.132;6.394;2023-08-30T10:26:45;9.32;;;5.90;;
52208;SDS011;38507;53.132;6.394;2023-08-30T10:29:12;8.75;;;5.85;;
52208;SDS011;38507;53.132;6.394;2023-08-30T10:31:40;12.40;;;5.45;;
52208;SDS011;38507;53.132;6.394;2023-08-30T10:34:15;7.35;;;5.05;;
52208;SDS011;38507;53.132;6.394;2023-08-30T10:36:42;8.27;;;5.57;;
52208;SDS011;38507;53.132;6.394;2023-08-30T10:39:12;8.55;;;5.97;;
52208;SDS011;38507;53.132;6.394;2023-08-30T10:41:53;9.98;;;6.43;;
52208;SDS011;38507;53.132;6.394;2023-08-30T10:44:21;9.27;;;5.60;;
52208;SDS011;38507;53.132;6.394;2023-08-30T10:46:51;7.47;;;5.45;;
52208;SDS011;38507;53.132;6.394;2023-08-30T10:49:18;7.78;;;5.30;;
52208;SDS011;38507;53.132;6.394;2023-08-30T10:51:44;10.27;;;5.13;;
52208;SDS011;38507;53.132;6.394;2023-08-30T10:54:16;6.65;;;4.43;;
52208;SDS011;38507;53.132;6.394;2023-08-30T10:59:20;8.07;;;4.10;;
52208;SDS011;38507;53.132;6.394;2023-08-30T11:01:47;7.45;;;3.75;;
52208;SDS011;38507;53.132;6.394;2023-08-30T11:04:14;6.95;;;3.50;;
52208;SDS011;38507;53.132;6.394;2023-08-30T11:06:42;5.78;;;3.10;;
52208;SDS011;38507;53.132;6.394;2023-08-30T11:09:09;6.47;;;3.10;;
52208;SDS011;38507;53.132;6.394;2023-08-30T11:11:37;6.20;;;3.55;;
52208;SDS011;38507;53.132;6.394;2023-08-30T11:14:03;6.07;;;3.45;;
52208;SDS011;38507;53.132;6.394;2023-08-30T11:16:31;6.38;;;3.60;;
52208;SDS011;38507;53.132;6.394;2023-08-30T11:18:58;4.80;;;3.03;;
52208;SDS011;38507;53.132;6.394;2023-08-30T11:21:23;5.72;;;2.80;;
52208;SDS011;38507;53.132;6.394;2023-08-30T11:23:49;5.60;;;3.20;;
52208;SDS011;38507;53.132;6.394;2023-08-30T11:26:16;4.15;;;2.70;;
52208;SDS011;38507;53.132;6.394;2023-08-30T11:28:44;4.80;;;3.15;;
52208;SDS011;38507;53.132;6.394;2023-08-30T11:31:22;6.72;;;3.50;;
52208;SDS011;38507;53.132;6.394;2023-08-30T11:33:52;7.45;;;3.70;;
52208;SDS011;38507;53.132;6.394;2023-08-30T11:36:20;5.65;;;3.38;;
52208;SDS011;38507;53.132;6.394;2023-08-30T11:38:50;8.60;;;3.90;;
52208;SDS011;38507;53.132;6.394;2023-08-30T11:41:17;5.65;;;3.47;;
52208;SDS011;38507;53.132;6.394;2023-08-30T11:43:44;8.55;;;3.50;;
52208;SDS011;38507;53.132;6.394;2023-08-30T11:46:10;6.40;;;3.78;;
52208;SDS011;38507;53.132;6.394;2023-08-30T11:48:37;8.43;;;3.90;;
52208;SDS011;38507;53.132;6.394;2023-08-30T11:51:07;7.47;;;3.90;;
52208;SDS011;38507;53.132;6.394;2023-08-30T11:53:36;6.15;;;3.58;;
52208;SDS011;38507;53.132;6.394;2023-08-30T11:56:03;6.10;;;3.63;;
52208;SDS011;38507;53.132;6.394;2023-08-30T11:58:33;7.20;;;3.92;;
52208;SDS011;38507;53.132;6.394;2023-08-30T12:01:02;7.60;;;4.10;;
52208;SDS011;38507;53.132;6.394;2023-08-30T12:03:29;7.05;;;4.53;;
52208;SDS011;38507;53.132;6.394;2023-08-30T12:05:56;8.13;;;4.50;;
52208;SDS011;38507;53.132;6.394;2023-08-30T12:08:25;8.27;;;4.10;;
52208;SDS011;38507;53.132;6.394;2023-08-30T12:10:53;7.88;;;4.30;;
52208;SDS011;38507;53.132;6.394;2023-08-30T12:15:49;8.05;;;4.47;;
52208;SDS011;38507;53.132;6.394;2023-08-30T12:18:15;7.43;;;4.72;;
52208;SDS011;38507;53.132;6.394;2023-08-30T12:20:51;6.57;;;5.18;;
52208;SDS011;38507;53.132;6.394;2023-08-30T12:23:21;8.27;;;5.25;;
52208;SDS011;38507;53.132;6.394;2023-08-30T12:28:26;7.53;;;5.30;;
52208;SDS011;38507;53.132;6.394;2023-08-30T12:30:52;8.15;;;5.50;;
52208;SDS011;38507;53.132;6.394;2023-08-30T12:33:18;9.07;;;6.30;;
52208;SDS011;38507;53.132;6.394;2023-08-30T12:35:44;12.45;;;6.43;;
52208;SDS011;38507;53.132;6.394;2023-08-30T12:38:10;8.75;;;6.43;;
52208;SDS011;38507;53.132;6.394;2023-08-30T12:40:48;10.40;;;6.80;;
52208;SDS011;38507;53.132;6.394;2023-08-30T12:43:15;10.02;;;6.80;;
52208;SDS011;38507;53.132;6.394;2023-08-30T12:45:42;8.93;;;6.45;;
52208;SDS011;38507;53.132;6.394;2023-08-30T12:48:09;8.93;;;6.68;;
52208;SDS011;38507;53.132;6.394;2023-08-30T12:50:36;9.20;;;7.40;;
52208;SDS011;38507;53.132;6.394;2023-08-30T12:53:03;8.60;;;7.13;;
52208;SDS011;38507;53.132;6.394;2023-08-30T12:55:32;9.57;;;6.90;;
52208;SDS011;38507;53.132;6.394;2023-08-30T12:57:59;12.50;;;8.02;;
52208;SDS011;38507;53.132;6.394;2023-08-30T13:00:25;9.90;;;7.03;;
52208;SDS011;38507;53.132;6.394;2023-08-30T13:02:51;10.98;;;8.18;;
52208;SDS011;38507;53.132;6.394;2023-08-30T13:05:17;11.25;;;7.90;;
52208;SDS011;38507;53.132;6.394;2023-08-30T13:07:43;9.80;;;7.63;;
52208;SDS011;38507;53.132;6.394;2023-08-30T13:10:09;11.15;;;8.40;;
52208;SDS011;38507;53.132;6.394;2023-08-30T13:12:35;9.88;;;7.70;;
52208;SDS011;38507;53.132;6.394;2023-08-30T13:15:02;10.02;;;7.20;;
52208;SDS011;38507;53.132;6.394;2023-08-30T13:17:29;10.98;;;7.88;;
52208;SDS011;38507;53.132;6.394;2023-08-30T13:19:54;10.27;;;8.15;;
52208;SDS011;38507;53.132;6.394;2023-08-30T13:22:21;11.60;;;7.30;;
52208;SDS011;38507;53.132;6.394;2023-08-30T13:24:47;10.20;;;7.88;;
52208;SDS011;38507;53.132;6.394;2023-08-30T13:27:13;10.02;;;7.72;;
52208;SDS011;38507;53.132;6.394;2023-08-30T13:29:39;12.27;;;7.55;;
52208;SDS011;38507;53.132;6.394;2023-08-30T13:32:04;10.13;;;7.90;;
52208;SDS011;38507;53.132;6.394;2023-08-30T13:34:30;10.00;;;7.68;;
52208;SDS011;38507;53.132;6.394;2023-08-30T13:36:56;10.48;;;7.63;;
52208;SDS011;38507;53.132;6.394;2023-08-30T13:39:22;10.18;;;7.57;;
52208;SDS011;38507;53.132;6.394;2023-08-30T13:41:47;11.75;;;7.00;;
52208;SDS011;38507;53.132;6.394;2023-08-30T13:44:13;10.38;;;7.65;;
52208;SDS011;38507;53.132;6.394;2023-08-30T13:46:40;10.18;;;7.28;;
52208;SDS011;38507;53.132;6.394;2023-08-30T13:49:05;9.88;;;6.95;;
52208;SDS011;38507;53.132;6.394;2023-08-30T13:51:31;8.40;;;6.57;;
52208;SDS011;38507;53.132;6.394;2023-08-30T13:53:57;8.85;;;6.72;;
52208;SDS011;38507;53.132;6.394;2023-08-30T13:56:23;7.88;;;5.95;;
52208;SDS011;38507;53.132;6.394;2023-08-30T13:58:49;6.07;;;5.13;;
52208;SDS011;38507;53.132;6.394;2023-08-30T14:01:15;9.88;;;6.38;;
52208;SDS011;38507;53.132;6.394;2023-08-30T14:03:41;7.80;;;5.93;;
52208;SDS011;38507;53.132;6.394;2023-08-30T14:06:10;7.28;;;5.65;;
52208;SDS011;38507;53.132;6.394;2023-08-30T14:08:36;8.77;;;6.53;;
52208;SDS011;38507;53.132;6.394;2023-08-30T14:11:02;8.00;;;6.18;;
52208;SDS011;38507;53.132;6.394;2023-08-30T14:13:28;8.77;;;7.03;;
52208;SDS011;38507;53.132;6.394;2023-08-30T14:15:58;8.32;;;6.68;;
52208;SDS011;38507;53.132;6.394;2023-08-30T14:18:24;9.45;;;6.65;;
52208;SDS011;38507;53.132;6.394;2023-08-30T14:20:50;8.13;;;6.15;;
52208;SDS011;38507;53.132;6.394;2023-08-30T14:23:20;8.50;;;6.90;;
52208;SDS011;38507;53.132;6.394;2023-08-30T14:25:45;7.80;;;5.78;;
52208;SDS011;38507;53.132;6.394;2023-08-30T14:28:11;7.57;;;6.10;;
52208;SDS011;38507;53.132;6.394;2023-08-30T14:30:36;8.05;;;6.65;;
52208;SDS011;38507;53.132;6.394;2023-08-30T14:33:02;8.02;;;6.00;;
52208;SDS011;38507;53.132;6.394;2023-08-30T14:35:28;6.32;;;4.97;;
52208;SDS011;38507;53.132;6.394;2023-08-30T14:37:56;5.95;;;5.10;;
52208;SDS011;38507;53.132;6.394;2023-08-30T14:40:22;7.72;;;5.65;;
52208;SDS011;38507;53.132;6.394;2023-08-30T14:42:47;6.90;;;5.80;;
52208;SDS011;38507;53.132;6.394;2023-08-30T14:45:13;8.55;;;5.80;;